createdAt,value
2022-10-05T00:02:26.382Z,101824.25
2022-10-05T00:04:56.492Z,101832.97
2022-10-05T00:07:24.500Z,101841.78
2022-10-05T00:10:00.299Z,101836.53
2022-10-05T00:12:29.865Z,101837.38
2022-10-05T00:15:00.688Z,101842.63
2022-10-05T00:17:29.652Z,101841.78
2022-10-05T00:19:56.644Z,101833.06
2022-10-05T00:22:29.902Z,101833.97
2022-10-05T00:24:59.978Z,101825.25
2022-10-05T00:27:36.166Z,101826.09
2022-10-05T00:30:13.240Z,101817.38
2022-10-05T00:32:39.713Z,101814.75
2022-10-05T00:35:06.669Z,101815.69
2022-10-05T00:37:33.311Z,101805.19
2022-10-05T00:39:59.773Z,101806.97
2022-10-05T00:42:32.597Z,101807.81
2022-10-05T00:45:21.847Z,101814.84
2022-10-05T00:48:14.852Z,101792.13
2022-10-05T00:51:15.079Z,101798.44
2022-10-05T00:53:47.530Z,101801.06
2022-10-05T00:56:46.310Z,101800.22
2022-10-05T00:59:31.654Z,101796.84
2022-10-05T01:02:34.365Z,101796.00
2022-10-05T01:05:20.330Z,101789.06
2022-10-05T01:08:11.326Z,101786.44
2022-10-05T01:11:10.695Z,101781.44
2022-10-05T01:14:12.266Z,101778.16
2022-10-05T01:16:57.108Z,101790.53
2022-10-05T01:19:32.372Z,101784.53
2022-10-05T01:22:34.274Z,101778.44
2022-10-05T01:25:22.915Z,101771.59
2022-10-05T01:27:54.740Z,101763.78
2022-10-05T01:30:22.286Z,101755.06
2022-10-05T01:33:01.304Z,101754.22
2022-10-05T01:35:44.318Z,101742.06
2022-10-05T01:38:26.040Z,101736.88
2022-10-05T01:41:16.485Z,101738.78
2022-10-05T01:44:27.470Z,101729.41
2022-10-05T01:47:09.339Z,101719.91
2022-10-05T01:49:38.800Z,101720.88
2022-10-05T01:52:43.934Z,101719.25
2022-10-05T01:55:19.655Z,101723.75
2022-10-05T01:58:11.478Z,101715.97
2022-10-05T02:00:56.538Z,101707.25
2022-10-05T02:03:28.186Z,101701.25
2022-10-05T02:05:59.614Z,101696.94
2022-10-05T02:08:34.933Z,101701.31
2022-10-05T02:11:06.514Z,101689.16
2022-10-05T02:13:44.158Z,101687.38
2022-10-05T02:16:34.003Z,101686.63
2022-10-05T02:19:10.469Z,101692.06
2022-10-05T02:21:36.984Z,101690.34
2022-10-05T02:24:09.861Z,101692.91
2022-10-05T02:26:37.479Z,101685.22
2022-10-05T02:29:08.461Z,101693.91
2022-10-05T02:31:47.678Z,101681.63
2022-10-05T02:34:30.571Z,101669.63
2022-10-05T02:37:15.894Z,101668.03
2022-10-05T02:40:16.621Z,101663.84
2022-10-05T02:42:50.825Z,101689.50
2022-10-05T02:45:36.510Z,101680.69
2022-10-05T02:48:28.258Z,101665.97
2022-10-05T02:51:08.935Z,101664.28
2022-10-05T02:54:06.149Z,101649.47
2022-10-05T02:56:52.452Z,101644.34
2022-10-05T02:59:40.544Z,101651.44
2022-10-05T03:02:07.018Z,101665.56
2022-10-05T03:04:47.863Z,101666.59
2022-10-05T03:07:35.773Z,101660.44
2022-10-05T03:10:16.431Z,101664.72
2022-10-05T03:12:52.569Z,101655.09
2022-10-05T03:15:31.072Z,101655.09
2022-10-05T03:18:11.452Z,101663.78
2022-10-05T03:21:04.153Z,101656.69
2022-10-05T03:23:49.716Z,101660.16
2022-10-05T03:26:25.283Z,101662.78
2022-10-05T03:29:17.780Z,101663.63
2022-10-05T03:31:56.311Z,101670.56
2022-10-05T03:34:31.932Z,101665.22
2022-10-05T03:37:13.791Z,101667.00
2022-10-05T03:39:47.484Z,101674.75
2022-10-05T03:42:38.866Z,101665.13
2022-10-05T03:45:30.491Z,101655.56
2022-10-05T03:48:11.475Z,101660.75
2022-10-05T03:50:54.934Z,101659.78
2022-10-05T03:53:28.177Z,101666.72
2022-10-05T03:56:09.955Z,101668.31
2022-10-05T03:58:50.052Z,101664.75
2022-10-05T04:01:22.704Z,101666.47
2022-10-05T04:04:04.000Z,101659.44
2022-10-05T04:06:44.393Z,101654.25
2022-10-05T04:09:24.335Z,101642.84
2022-10-05T04:12:06.657Z,101641.06
2022-10-05T04:14:46.654Z,101643.69
2022-10-05T04:17:17.968Z,101640.22
2022-10-05T04:19:54.754Z,101635.06
2022-10-05T04:22:25.405Z,101634.13
2022-10-05T04:24:58.560Z,101638.63
2022-10-05T04:27:39.204Z,101633.38
2022-10-05T04:30:10.205Z,101632.53
2022-10-05T04:32:44.053Z,101631.59
2022-10-05T04:35:19.501Z,101626.34
2022-10-05T04:38:10.793Z,101617.72
2022-10-05T04:41:05.042Z,101622.97
2022-10-05T04:43:40.502Z,101611.63
2022-10-05T04:46:24.690Z,101611.63
2022-10-05T04:49:08.362Z,101609.13
2022-10-05T04:51:48.915Z,101606.50
2022-10-05T04:54:44.243Z,101614.34
2022-10-05T04:57:17.792Z,101613.53
2022-10-05T05:00:09.100Z,101614.34
2022-10-05T05:03:09.622Z,101612.66
2022-10-05T05:06:15.797Z,101610.91
2022-10-05T05:09:22.335Z,101598.63
2022-10-05T05:11:57.025Z,101603.03
2022-10-05T05:14:36.194Z,101600.41
2022-10-05T05:17:20.763Z,101592.53
2022-10-05T05:20:09.436Z,101592.53
2022-10-05T05:23:20.226Z,101590.75
2022-10-05T05:25:56.228Z,101582.97
2022-10-05T05:28:31.918Z,101576.88
2022-10-05T05:31:39.664Z,101586.41
2022-10-05T05:34:32.031Z,101589.03
2022-10-05T05:37:24.478Z,101589.03
2022-10-05T05:40:05.906Z,101589.16
2022-10-05T05:42:42.460Z,101589.25
2022-10-05T05:45:20.830Z,101592.78
2022-10-05T05:47:59.375Z,101591.00
2022-10-05T05:50:30.360Z,101591.13
2022-10-05T05:53:05.672Z,101581.47
2022-10-05T05:55:46.394Z,101591.94
2022-10-05T05:58:25.209Z,101586.81
2022-10-05T06:01:04.632Z,101585.09
2022-10-05T06:03:43.282Z,101589.50
2022-10-05T06:06:14.259Z,101587.72
2022-10-05T06:08:49.828Z,101589.50
2022-10-05T06:11:37.216Z,101589.50
2022-10-05T06:14:13.080Z,101587.72
2022-10-05T06:16:47.424Z,101594.69
2022-10-05T06:19:17.435Z,101593.75
2022-10-05T06:22:16.446Z,101591.13
2022-10-05T06:25:15.790Z,101591.19
2022-10-05T06:28:03.714Z,101595.53
2022-10-05T06:30:57.989Z,101586.72
2022-10-05T06:33:36.328Z,101587.53
2022-10-05T06:36:10.285Z,101589.25
2022-10-05T06:38:59.601Z,101583.91
2022-10-05T06:41:54.966Z,101590.00
2022-10-05T06:44:39.535Z,101596.84
2022-10-05T06:47:20.320Z,101596.72
2022-10-05T06:50:39.453Z,101595.81
2022-10-05T06:53:20.475Z,101594.75
2022-10-05T06:55:55.809Z,101601.72
2022-10-05T06:58:41.477Z,101590.38
2022-10-05T07:01:26.313Z,101604.22
2022-10-05T07:04:34.597Z,101601.53
2022-10-05T07:07:24.094Z,101601.34
2022-10-05T07:10:08.752Z,101597.59
2022-10-05T07:12:54.989Z,101600.94
2022-10-05T07:15:46.829Z,101598.31
2022-10-05T07:18:41.405Z,101602.38
2022-10-05T07:21:22.710Z,101596.28
2022-10-05T07:24:13.189Z,101591.78
2022-10-05T07:26:49.233Z,101596.00
2022-10-05T07:29:24.330Z,101598.63
2022-10-05T07:32:24.614Z,101596.81
2022-10-05T07:35:04.236Z,101592.44
2022-10-05T07:37:54.411Z,101596.81
2022-10-05T07:40:44.911Z,101595.91
2022-10-05T07:43:23.479Z,101604.63
2022-10-05T07:45:58.359Z,101609.88
2022-10-05T07:49:06.840Z,101603.69
2022-10-05T07:51:39.028Z,101599.25
2022-10-05T07:54:21.357Z,101594.00
2022-10-05T07:57:20.120Z,101592.16
2022-10-05T08:00:01.496Z,101591.19
2022-10-05T08:02:42.956Z,101585.13
2022-10-05T08:05:32.264Z,101585.88
2022-10-05T08:08:11.002Z,101583.16
2022-10-05T08:11:00.897Z,101589.16
2022-10-05T08:13:35.414Z,101586.41
2022-10-05T08:16:06.488Z,101581.94
2022-10-05T08:19:10.676Z,101580.03
2022-10-05T08:21:43.997Z,101579.94
2022-10-05T08:24:18.825Z,101572.72
2022-10-05T08:27:17.486Z,101572.34
2022-10-05T08:29:59.669Z,101569.59
2022-10-05T08:32:31.525Z,101566.91
2022-10-05T08:35:03.982Z,101569.41
2022-10-05T08:37:37.205Z,101561.53
2022-10-05T08:40:18.785Z,101558.72
2022-10-05T08:43:19.374Z,101564.72
2022-10-05T08:46:23.151Z,101561.28
2022-10-05T08:48:56.482Z,101560.78
2022-10-05T08:52:04.972Z,101552.69
2022-10-05T08:54:40.391Z,101547.97
2022-10-05T08:57:30.448Z,101558.28
2022-10-05T09:00:10.491Z,101549.25
2022-10-05T09:02:49.024Z,101557.84
2022-10-05T09:05:41.793Z,101547.34
2022-10-05T09:08:27.035Z,101551.31
2022-10-05T09:11:17.069Z,101550.38
2022-10-05T09:13:55.591Z,101549.47
2022-10-05T09:16:41.373Z,101537.69
2022-10-05T09:19:25.940Z,101545.47
2022-10-05T09:22:15.728Z,101540.03
2022-10-05T09:25:02.757Z,101536.16
2022-10-05T09:27:37.022Z,101527.97
2022-10-05T09:30:30.749Z,101532.91
2022-10-05T09:33:25.747Z,101529.97
2022-10-05T09:36:44.745Z,101526.91
2022-10-05T09:39:29.713Z,101523.69
2022-10-05T09:42:24.220Z,101524.84
2022-10-05T09:45:17.714Z,101520.75
2022-10-05T09:48:22.121Z,101522.84
2022-10-05T09:51:22.482Z,101514.53
2022-10-05T09:54:01.041Z,101514.84
2022-10-05T09:56:49.904Z,101512.50
2022-10-05T09:59:42.874Z,101506.78
2022-10-05T10:02:27.639Z,101502.00
2022-10-05T10:05:22.870Z,101506.84
2022-10-05T10:07:58.518Z,101496.94
2022-10-05T10:10:56.700Z,101489.34
2022-10-05T10:13:28.968Z,101494.06
2022-10-05T10:16:10.768Z,101491.53
2022-10-05T10:19:17.801Z,101490.47
2022-10-05T10:22:14.485Z,101482.13
2022-10-05T10:25:10.818Z,101485.25
2022-10-05T10:27:54.174Z,101481.47
2022-10-05T10:31:11.975Z,101486.00
2022-10-05T10:34:16.353Z,101488.19
2022-10-05T10:37:03.495Z,101482.09
2022-10-05T10:39:38.614Z,101487.66
2022-10-05T10:42:26.766Z,101473.06
2022-10-05T10:45:19.334Z,101473.06
2022-10-05T10:47:51.999Z,101477.34
2022-10-05T10:50:35.076Z,101474.72
2022-10-05T10:53:36.060Z,101468.53
2022-10-05T10:56:11.916Z,101470.09
2022-10-05T10:58:53.532Z,101468.53
2022-10-05T11:01:25.944Z,101468.41
2022-10-05T11:04:07.317Z,101470.81
2022-10-05T11:06:43.218Z,101467.56
2022-10-05T11:09:51.625Z,101456.53
2022-10-05T11:12:50.192Z,101459.78
2022-10-05T11:15:25.870Z,101454.41
2022-10-05T11:18:15.573Z,101462.19
2022-10-05T11:21:17.260Z,101463.75
2022-10-05T11:24:10.998Z,101462.69
2022-10-05T11:27:04.010Z,101459.84
2022-10-05T11:29:41.474Z,101454.00
2022-10-05T11:32:26.399Z,101444.06
2022-10-05T11:35:07.836Z,101443.84
2022-10-05T11:37:40.236Z,101439.31
2022-10-05T11:40:18.839Z,101434.66
2022-10-05T11:42:57.411Z,101433.69
2022-10-05T11:45:38.394Z,101439.56
2022-10-05T11:48:23.772Z,101426.53
2022-10-05T11:51:19.240Z,101429.16
2022-10-05T11:54:10.023Z,101437.53
2022-10-05T11:56:41.776Z,101433.00
2022-10-05T11:59:23.411Z,101427.50
2022-10-05T12:02:01.344Z,101420.22
2022-10-05T12:04:42.776Z,101421.44
2022-10-05T12:07:54.286Z,101421.66
2022-10-05T12:10:28.910Z,101424.00
2022-10-05T12:13:27.380Z,101417.41
2022-10-05T12:16:10.463Z,101410.81
2022-10-05T12:18:39.366Z,101416.47
2022-10-05T12:21:33.010Z,101419.72
2022-10-05T12:24:07.305Z,101413.84
2022-10-05T12:26:55.400Z,101418.03
2022-10-05T12:29:44.975Z,101405.22
2022-10-05T12:32:21.162Z,101397.69
2022-10-05T12:35:46.998Z,101390.72
2022-10-05T12:38:46.622Z,101392.38
2022-10-05T12:41:29.061Z,101407.88
2022-10-05T12:44:02.613Z,101393.81
2022-10-05T12:46:50.166Z,101390.56
2022-10-05T12:49:34.988Z,101388.03
2022-10-05T12:52:05.496Z,101387.78
2022-10-05T12:54:46.958Z,101392.47
2022-10-05T12:57:42.726Z,101395.22
2022-10-05T13:00:09.305Z,101395.56
2022-10-05T13:03:01.270Z,101382.50
2022-10-05T13:05:36.680Z,101393.06
2022-10-05T13:08:08.061Z,101394.03
2022-10-05T13:11:02.231Z,101393.31
2022-10-05T13:13:38.004Z,101386.13
2022-10-05T13:16:22.727Z,101386.59
2022-10-05T13:18:58.876Z,101396.47
2022-10-05T13:21:53.624Z,101389.50
2022-10-05T13:24:32.136Z,101391.78
2022-10-05T13:27:05.018Z,101395.13
2022-10-05T13:29:38.662Z,101390.81
2022-10-05T13:32:27.146Z,101389.75
2022-10-05T13:34:59.961Z,101392.38
2022-10-05T13:38:07.301Z,101400.06
2022-10-05T13:40:50.852Z,101384.97
2022-10-05T13:43:40.175Z,101391.31
2022-10-05T13:46:18.749Z,101397.53
2022-10-05T13:48:52.571Z,101386.59
2022-10-05T13:51:23.801Z,101388.66
2022-10-05T13:54:01.720Z,101374.22
2022-10-05T13:56:39.713Z,101370.84
2022-10-05T13:59:38.359Z,101390.06
2022-10-05T14:02:12.288Z,101372.28
2022-10-05T14:04:52.126Z,101378.16
2022-10-05T14:07:48.207Z,101385.38
2022-10-05T14:10:28.773Z,101376.00
2022-10-05T14:12:55.644Z,101405.72
2022-10-05T14:15:33.094Z,101374.81
2022-10-05T14:17:59.660Z,101383.31
2022-10-05T14:20:31.557Z,101385.56
2022-10-05T14:23:01.804Z,101380.84
2022-10-05T14:25:30.526Z,101376.84
2022-10-05T14:28:03.341Z,101383.75
2022-10-05T14:30:32.167Z,101394.41
2022-10-05T14:33:04.386Z,101384.34
2022-10-05T14:35:36.963Z,101396.63
2022-10-05T14:38:18.434Z,101404.09
2022-10-05T14:40:44.934Z,101405.22
2022-10-05T14:43:14.167Z,101405.19
2022-10-05T14:46:02.653Z,101410.84
2022-10-05T14:48:40.732Z,101412.03
2022-10-05T14:51:25.373Z,101421.50
2022-10-05T14:54:14.870Z,101415.78
2022-10-05T14:56:56.951Z,101416.13
2022-10-05T14:59:33.882Z,101416.13
2022-10-05T15:02:37.727Z,101411.22
2022-10-05T15:05:24.786Z,101406.31
2022-10-05T15:07:53.070Z,101403.53
2022-10-05T15:10:43.861Z,101415.75
2022-10-05T15:13:18.403Z,101411.22
2022-10-05T15:15:50.182Z,101406.66
2022-10-05T15:18:32.029Z,101404.13
2022-10-05T15:21:26.496Z,101398.41
2022-10-05T15:24:14.944Z,101409.41
2022-10-05T15:26:50.622Z,101405.31
2022-10-05T15:29:32.062Z,101405.69
2022-10-05T15:32:14.659Z,101395.59
2022-10-05T15:35:03.977Z,101412.63
2022-10-05T15:37:49.255Z,101412.16
2022-10-05T15:40:44.558Z,101423.03
2022-10-05T15:43:16.370Z,101425.91
2022-10-05T15:46:06.413Z,101423.16
2022-10-05T15:49:08.475Z,101421.47
2022-10-05T15:51:53.728Z,101418.22
2022-10-05T15:54:43.014Z,101417.53
2022-10-05T15:57:33.231Z,101421.09
2022-10-05T16:00:02.198Z,101415.72
2022-10-05T16:02:44.177Z,101418.34
2022-10-05T16:05:53.583Z,101422.06
2022-10-05T16:08:56.441Z,101429.97
2022-10-05T16:11:27.686Z,101415.97
2022-10-05T16:14:35.986Z,101417.94
2022-10-05T16:17:28.770Z,101418.41
2022-10-05T16:19:58.184Z,101434.69
2022-10-05T16:22:43.807Z,101432.41
2022-10-05T16:25:22.195Z,101434.19
2022-10-05T16:28:12.504Z,101437.06
2022-10-05T16:30:58.759Z,101443.53
2022-10-05T16:33:44.488Z,101440.16
2022-10-05T16:36:25.981Z,101442.03
2022-10-05T16:38:59.182Z,101444.91
2022-10-05T16:41:34.972Z,101441.66
2022-10-05T16:44:33.777Z,101439.16
2022-10-05T16:47:32.343Z,101446.31
2022-10-05T16:50:19.957Z,101455.31
2022-10-05T16:52:52.257Z,101457.19
2022-10-05T16:55:29.396Z,101453.72
2022-10-05T16:57:57.955Z,101449.53
2022-10-05T17:00:51.986Z,101458.47
2022-10-05T17:03:29.775Z,101465.75
2022-10-05T17:06:25.988Z,101465.88
2022-10-05T17:09:20.354Z,101472.09
2022-10-05T17:12:14.677Z,101458.09
2022-10-05T17:14:59.661Z,101459.06
2022-10-05T17:17:54.189Z,101466.81
2022-10-05T17:20:33.807Z,101468.75
2022-10-05T17:23:29.164Z,101465.28
2022-10-05T17:26:03.746Z,101474.09
2022-10-05T17:29:11.930Z,101462.97
2022-10-05T17:32:30.359Z,101469.19
2022-10-05T17:35:02.865Z,101479.72
2022-10-05T17:37:39.416Z,101476.34
2022-10-05T17:40:35.344Z,101481.72
2022-10-05T17:43:26.798Z,101488.78
2022-10-05T17:45:56.672Z,101491.53
2022-10-05T17:48:44.118Z,101509.94
2022-10-05T17:51:47.654Z,101498.69
2022-10-05T17:54:42.296Z,101504.06
2022-10-05T17:57:08.702Z,101501.22
2022-10-05T17:59:56.821Z,101508.28
2022-10-05T18:02:36.269Z,101517.00
2022-10-05T18:05:12.441Z,101510.78
2022-10-05T18:07:40.640Z,101514.38
2022-10-05T18:10:09.907Z,101506.47
2022-10-05T18:12:36.329Z,101500.38
2022-10-05T18:15:35.599Z,101506.59
2022-10-05T18:18:40.901Z,101509.22
2022-10-05T18:21:13.449Z,101508.41
2022-10-05T18:23:59.866Z,101517.13
2022-10-05T18:27:15.330Z,101510.16
2022-10-05T18:30:03.125Z,101517.22
2022-10-05T18:32:52.625Z,101522.50
2022-10-05T18:35:44.125Z,101526.69
2022-10-05T18:38:20.615Z,101520.59
2022-10-05T18:41:12.784Z,101516.16
2022-10-05T18:44:05.712Z,101530.19
2022-10-05T18:46:38.308Z,101536.28
2022-10-05T18:49:28.916Z,101540.63
2022-10-05T18:52:22.892Z,101540.63
2022-10-05T18:55:19.110Z,101544.91
2022-10-05T18:58:25.903Z,101547.56
2022-10-05T19:01:15.026Z,101553.66
2022-10-05T19:04:10.750Z,101548.38
2022-10-05T19:06:43.736Z,101568.41
2022-10-05T19:09:28.842Z,101562.16
2022-10-05T19:11:59.908Z,101568.28
2022-10-05T19:14:37.598Z,101576.91
2022-10-05T19:17:23.967Z,101568.91
2022-10-05T19:19:53.119Z,101587.13
2022-10-05T19:22:51.986Z,101594.31
2022-10-05T19:25:32.829Z,101592.59
2022-10-05T19:28:18.278Z,101591.75
2022-10-05T19:31:00.383Z,101599.56
2022-10-05T19:34:04.766Z,101605.75
2022-10-05T19:36:40.851Z,101618.00
2022-10-05T19:39:11.136Z,101619.78
2022-10-05T19:41:52.754Z,101623.28
2022-10-05T19:44:28.891Z,101652.31
2022-10-05T19:47:22.389Z,101682.88
2022-10-05T19:49:51.814Z,101703.94
2022-10-05T19:52:24.645Z,101713.09
2022-10-05T19:55:22.412Z,101728.81
2022-10-05T19:57:51.709Z,101725.88
2022-10-05T20:00:20.791Z,101741.16
2022-10-05T20:02:47.396Z,101722.25
2022-10-05T20:05:14.202Z,101740.81
2022-10-05T20:07:41.135Z,101740.78
2022-10-05T20:10:29.013Z,101751.75
2022-10-05T20:12:58.615Z,101749.47
2022-10-05T20:15:52.970Z,101753.56
2022-10-05T20:18:57.081Z,101764.78
2022-10-05T20:21:40.022Z,101779.97
2022-10-05T20:24:17.259Z,101779.19
2022-10-05T20:27:02.188Z,101790.72
2022-10-05T20:29:30.344Z,101798.59
2022-10-05T20:31:56.801Z,101799.50
2022-10-05T20:34:23.848Z,101810.84
2022-10-05T20:36:51.137Z,101813.66
2022-10-05T20:39:18.811Z,101812.88
2022-10-05T20:41:45.470Z,101812.72
2022-10-05T20:44:13.297Z,101823.28
2022-10-05T20:46:41.611Z,101819.91
2022-10-05T20:49:10.627Z,101823.38
2022-10-05T20:51:40.452Z,101825.84
2022-10-05T20:54:08.048Z,101835.56
2022-10-05T20:56:34.882Z,101839.13
2022-10-05T20:59:01.385Z,101858.41
2022-10-05T21:01:28.957Z,101866.03
2022-10-05T21:03:55.733Z,101867.03
2022-10-05T21:06:22.457Z,101877.50
2022-10-05T21:08:51.358Z,101893.25
2022-10-05T21:11:17.877Z,101900.59
2022-10-05T21:13:45.631Z,101910.41
2022-10-05T21:16:13.983Z,101911.56
2022-10-05T21:18:40.623Z,101900.66
2022-10-05T21:21:07.646Z,101894.22
2022-10-05T21:23:34.567Z,101897.16
2022-10-05T21:26:01.706Z,101896.56
2022-10-05T21:28:28.995Z,101897.63
2022-10-05T21:30:55.689Z,101903.97
2022-10-05T21:33:22.145Z,101902.19
2022-10-05T21:35:48.550Z,101902.44
2022-10-05T21:38:15.011Z,101907.94
2022-10-05T21:40:43.319Z,101916.63
2022-10-05T21:43:09.824Z,101914.16
2022-10-05T21:45:36.383Z,101911.84
2022-10-05T21:48:03.320Z,101923.28
2022-10-05T21:50:29.768Z,101929.25
2022-10-05T21:52:56.252Z,101925.25
2022-10-05T21:55:22.778Z,101932.22
2022-10-05T21:57:49.248Z,101929.91
2022-10-05T22:00:16.698Z,101942.31
2022-10-05T22:02:43.097Z,101956.56
2022-10-05T22:05:09.661Z,101957.50
2022-10-05T22:07:36.103Z,101962.72
2022-10-05T22:10:02.833Z,101970.72
2022-10-05T22:12:29.311Z,101979.97
2022-10-05T22:14:55.792Z,101974.94
2022-10-05T22:17:31.036Z,101977.00
2022-10-05T22:20:01.381Z,101985.78
2022-10-05T22:22:29.334Z,101991.13
2022-10-05T22:24:56.287Z,101994.78
2022-10-05T22:27:25.815Z,102003.66
2022-10-05T22:29:53.120Z,102012.41
2022-10-05T22:32:19.592Z,102016.94
2022-10-05T22:34:46.416Z,102023.16
2022-10-05T22:37:13.533Z,102028.47
2022-10-05T22:39:40.257Z,102039.03
2022-10-05T22:42:07.495Z,102023.31
2022-10-05T22:44:34.488Z,102040.88
2022-10-05T22:47:02.369Z,102045.25
2022-10-05T22:49:28.792Z,102042.66
2022-10-05T22:51:55.193Z,102053.97
2022-10-05T22:54:22.944Z,102060.22
2022-10-05T22:56:51.704Z,102061.19
2022-10-05T22:59:18.160Z,102072.59
2022-10-05T23:01:44.629Z,102069.25
2022-10-05T23:04:11.862Z,102068.34
2022-10-05T23:06:38.256Z,102069.25
2022-10-05T23:09:04.737Z,102078.00
2022-10-05T23:11:31.381Z,102076.47
2022-10-05T23:13:58.684Z,102083.50
2022-10-05T23:16:26.745Z,102087.06
2022-10-05T23:18:55.073Z,102091.53
2022-10-05T23:21:23.369Z,102098.50
2022-10-05T23:23:52.607Z,102104.63
2022-10-05T23:26:21.810Z,102107.38
2022-10-05T23:28:49.277Z,102113.50
2022-10-05T23:31:18.911Z,102110.13
2022-10-05T23:33:45.634Z,102110.16
2022-10-05T23:36:18.174Z,102120.72
2022-10-05T23:38:45.298Z,102123.31
2022-10-05T23:41:12.529Z,102132.06
2022-10-05T23:43:39.671Z,102131.31
2022-10-05T23:46:07.210Z,102143.44
2022-10-05T23:48:37.935Z,102147.00
2022-10-05T23:51:09.833Z,102154.84
2022-10-05T23:53:36.462Z,102159.34
2022-10-05T23:56:03.629Z,102164.63
2022-10-05T23:58:30.642Z,102156.06
